createdAt,value
2023-10-20T00:00:42.490Z,97218.78
2023-10-20T00:03:09.985Z,97213.66
2023-10-20T00:05:37.200Z,97208.53
2023-10-20T00:08:04.028Z,97209.69
2023-10-20T00:10:38.071Z,97221.38
2023-10-20T00:13:05.998Z,97224.19
2023-10-20T00:15:34.570Z,97219.91
2023-10-20T00:18:02.563Z,97224.50
2023-10-20T00:20:29.934Z,97216.78
2023-10-20T00:22:56.930Z,97215.94
2023-10-20T00:25:23.890Z,97207.38
2023-10-20T00:27:50.554Z,97204.91
2023-10-20T00:30:17.075Z,97209.31
2023-10-20T00:32:44.267Z,97209.47
2023-10-20T00:35:14.503Z,97205.22
2023-10-20T00:37:42.208Z,97209.63
2023-10-20T00:40:12.255Z,97198.44
2023-10-20T00:42:39.406Z,97188.06
2023-10-20T00:45:08.038Z,97169.75
2023-10-20T00:47:37.227Z,97160.19
2023-10-20T00:50:05.837Z,97157.69
2023-10-20T00:52:37.119Z,97158.69
2023-10-20T00:55:04.582Z,97150.78
2023-10-20T00:57:31.192Z,97154.41
2023-10-20T00:59:57.650Z,97159.84
2023-10-20T01:02:25.640Z,97164.28
2023-10-20T01:04:52.679Z,97160.97
2023-10-20T01:07:19.140Z,97160.16
2023-10-20T01:09:46.012Z,97147.97
2023-10-20T01:12:12.529Z,97143.84
2023-10-20T01:14:39.159Z,97157.19
2023-10-20T01:17:05.991Z,97153.84
2023-10-20T01:19:33.428Z,97147.78
2023-10-20T01:22:00.990Z,97133.91
2023-10-20T01:24:27.914Z,97136.56
2023-10-20T01:26:54.419Z,97141.03
2023-10-20T01:29:21.208Z,97135.91
2023-10-20T01:31:47.828Z,97132.44
2023-10-20T01:34:14.572Z,97115.81
2023-10-20T01:36:41.321Z,97107.91
2023-10-20T01:39:09.226Z,97087.78
2023-10-20T01:41:35.807Z,97089.44
2023-10-20T01:44:02.294Z,97079.88
2023-10-20T01:46:29.774Z,97086.97
2023-10-20T01:48:56.418Z,97088.78
2023-10-20T01:51:22.870Z,97078.22
2023-10-20T01:53:49.356Z,97079.06
2023-10-20T01:56:15.872Z,97086.97
2023-10-20T01:58:42.392Z,97078.22
2023-10-20T02:01:09.690Z,97061.59
2023-10-20T02:03:36.330Z,97067.84
2023-10-20T02:06:03.191Z,97067.69
2023-10-20T02:08:29.680Z,97076.59
2023-10-20T02:10:56.143Z,97070.47
2023-10-20T02:13:22.603Z,97068.69
2023-10-20T02:15:51.364Z,97062.56
2023-10-20T02:18:18.634Z,97057.47
2023-10-20T02:20:45.350Z,97056.66
2023-10-20T02:23:12.585Z,97040.84
2023-10-20T02:25:39.220Z,97034.75
2023-10-20T02:28:06.085Z,97032.94
2023-10-20T02:30:33.725Z,97031.28
2023-10-20T02:33:01.639Z,97028.63
2023-10-20T02:35:28.181Z,97020.09
2023-10-20T02:37:54.637Z,97012.34
2023-10-20T02:40:21.251Z,97009.84
2023-10-20T02:42:47.896Z,97022.22
2023-10-20T02:45:14.642Z,97014.47
2023-10-20T02:47:41.406Z,97019.75
2023-10-20T02:50:08.639Z,97018.91
2023-10-20T02:52:35.156Z,97005.91
2023-10-20T02:55:01.872Z,97006.91
2023-10-20T02:57:28.473Z,96994.72
2023-10-20T02:59:54.972Z,96991.41
2023-10-20T03:02:21.839Z,96988.75
2023-10-20T03:04:48.483Z,96980.22
2023-10-20T03:07:15.057Z,96977.59
2023-10-20T03:09:41.510Z,96966.38
2023-10-20T03:12:07.993Z,96965.56
2023-10-20T03:14:35.988Z,96965.72
2023-10-20T03:17:02.980Z,96961.44
2023-10-20T03:19:29.769Z,96960.78
2023-10-20T03:21:56.388Z,96949.44
2023-10-20T03:24:22.980Z,96947.94
2023-10-20T03:26:49.687Z,96940.19
2023-10-20T03:29:16.344Z,96929.81
2023-10-20T03:31:43.320Z,96938.72
2023-10-20T03:34:09.838Z,96936.25
2023-10-20T03:36:36.301Z,96938.03
2023-10-20T03:39:02.830Z,96930.13
2023-10-20T03:41:30.460Z,96928.66
2023-10-20T03:43:57.066Z,96926.03
2023-10-20T03:46:24.648Z,96914.84
2023-10-20T03:48:51.158Z,96911.38
2023-10-20T03:51:18.296Z,96902.81
2023-10-20T03:53:48.812Z,96898.53
2023-10-20T03:56:16.106Z,96888.31
2023-10-20T03:58:43.745Z,96893.56
2023-10-20T04:01:10.445Z,96894.56
2023-10-20T04:03:37.009Z,96899.03
2023-10-20T04:06:07.461Z,96883.41
2023-10-20T04:08:35.224Z,96872.84
2023-10-20T04:11:02.039Z,96857.22
2023-10-20T04:13:33.277Z,96860.00
2023-10-20T04:16:13.495Z,96866.59
2023-10-20T04:18:44.379Z,96862.00
2023-10-20T04:21:14.939Z,96867.25
2023-10-20T04:23:42.170Z,96862.16
2023-10-20T04:26:34.835Z,96863.31
2023-10-20T04:29:14.622Z,96857.06
2023-10-20T04:32:00.383Z,96850.16
2023-10-20T04:34:46.088Z,96841.41
2023-10-20T04:37:31.352Z,96848.47
2023-10-20T04:40:16.436Z,96852.09
2023-10-20T04:42:42.940Z,96834.66
2023-10-20T04:45:22.951Z,96839.09
2023-10-20T04:48:01.414Z,96827.75
2023-10-20T04:50:33.931Z,96834.00
2023-10-20T04:53:06.781Z,96816.56
2023-10-20T04:55:54.216Z,96814.91
2023-10-20T04:58:39.055Z,96821.19
2023-10-20T05:01:08.765Z,96824.78
2023-10-20T05:03:47.709Z,96838.94
2023-10-20T05:06:23.718Z,96819.88
2023-10-20T05:08:50.907Z,96823.50
2023-10-20T05:11:17.920Z,96810.31
2023-10-20T05:17:26.523Z,96798.63
2023-10-20T05:19:54.900Z,96796.50
2023-10-20T05:22:21.507Z,96789.06
2023-10-20T05:24:48.082Z,96798.97
2023-10-20T05:27:14.590Z,96802.91
2023-10-20T05:29:41.190Z,96803.06
2023-10-20T05:32:07.947Z,96772.47
2023-10-20T05:34:35.691Z,96765.38
2023-10-20T05:37:02.676Z,96748.78
2023-10-20T05:39:29.251Z,96753.22
2023-10-20T05:41:55.804Z,96758.63
2023-10-20T05:44:24.258Z,96748.13
2023-10-20T05:46:51.793Z,96746.47
2023-10-20T05:49:18.371Z,96754.53
2023-10-20T05:51:46.314Z,96755.53
2023-10-20T05:54:12.788Z,96747.78
2023-10-20T05:56:39.322Z,96741.06
2023-10-20T05:59:05.855Z,96737.59
2023-10-20T06:01:32.494Z,96733.31
2023-10-20T06:03:59.432Z,96722.31
2023-10-20T06:06:25.973Z,96717.22
2023-10-20T06:08:52.478Z,96716.38
2023-10-20T06:11:19.083Z,96707.84
2023-10-20T06:13:45.506Z,96699.09
2023-10-20T06:16:12.688Z,96702.91
2023-10-20T06:18:42.085Z,96696.81
2023-10-20T06:21:18.092Z,96706.84
2023-10-20T06:23:45.248Z,96702.25
2023-10-20T06:26:12.034Z,96708.50
2023-10-20T06:28:38.628Z,96680.69
2023-10-20T06:31:28.559Z,96687.78
2023-10-20T06:34:10.644Z,96682.53
2023-10-20T06:36:41.332Z,96683.50
2023-10-20T06:39:13.971Z,96702.25
2023-10-20T06:41:41.201Z,96704.03
2023-10-20T06:44:08.035Z,96696.31
2023-10-20T06:46:34.547Z,96684.16
2023-10-20T06:49:01.027Z,96687.63
2023-10-20T06:51:27.536Z,96692.19
2023-10-20T06:53:54.854Z,96680.03
2023-10-20T06:56:25.894Z,96667.88
2023-10-20T06:58:54.587Z,96672.31
2023-10-20T07:01:21.076Z,96665.91
2023-10-20T07:03:47.813Z,96665.25
2023-10-20T07:06:14.530Z,96666.56
2023-10-20T07:08:41.258Z,96669.19
2023-10-20T07:11:08.165Z,96668.53
2023-10-20T07:13:35.118Z,96679.03
2023-10-20T07:16:01.941Z,96680.03
2023-10-20T07:18:28.707Z,96665.09
2023-10-20T07:20:58.687Z,96666.91
2023-10-20T07:23:25.976Z,96668.53
2023-10-20T07:25:53.887Z,96665.91
2023-10-20T07:28:20.401Z,96670.34
2023-10-20T07:30:46.848Z,96681.84
2023-10-20T07:33:13.545Z,96680.03
2023-10-20T07:35:40.449Z,96681.84
2023-10-20T07:38:09.202Z,96678.41
2023-10-20T07:40:38.950Z,96682.66
2023-10-20T07:43:07.478Z,96671.31
2023-10-20T07:45:44.281Z,96670.84
2023-10-20T07:48:11.964Z,96675.78
2023-10-20T07:50:39.026Z,96672.31
2023-10-20T07:53:06.355Z,96672.47
2023-10-20T07:55:32.909Z,96661.94
2023-10-20T07:58:02.299Z,96661.16
2023-10-20T08:00:30.677Z,96652.41
2023-10-20T08:02:57.457Z,96662.94
2023-10-20T08:05:27.054Z,96666.56
2023-10-20T08:07:54.389Z,96668.38
2023-10-20T08:10:22.924Z,96660.63
2023-10-20T08:12:50.337Z,96658.00
2023-10-20T08:15:17.588Z,96657.19
2023-10-20T08:17:46.264Z,96657.19
2023-10-20T08:20:13.848Z,96660.63
2023-10-20T08:22:40.637Z,96661.47
2023-10-20T08:25:08.550Z,96639.78
2023-10-20T08:27:35.300Z,96644.84
2023-10-20T08:30:01.952Z,96654.56
2023-10-20T08:32:28.539Z,96645.84
2023-10-20T08:34:55.059Z,96638.94
2023-10-20T08:37:21.565Z,96630.22
2023-10-20T08:39:48.209Z,96625.09
2023-10-20T08:42:19.039Z,96638.44
2023-10-20T08:44:46.338Z,96633.97
2023-10-20T08:47:18.589Z,96629.88
2023-10-20T08:49:47.224Z,96632.34
2023-10-20T08:52:14.597Z,96631.34
2023-10-20T08:54:42.267Z,96630.56
2023-10-20T08:57:09.477Z,96623.47
2023-10-20T08:59:39.048Z,96624.47
2023-10-20T09:02:06.415Z,96614.78
2023-10-20T09:04:35.484Z,96613.09
2023-10-20T09:07:13.000Z,96605.56
2023-10-20T09:09:41.905Z,96620.19
2023-10-20T09:12:09.876Z,96623.63
2023-10-20T09:14:42.693Z,96614.09
2023-10-20T09:17:13.134Z,96620.03
2023-10-20T09:19:39.644Z,96613.94
2023-10-20T09:22:06.782Z,96621.00
2023-10-20T09:24:33.471Z,96613.09
2023-10-20T09:27:01.068Z,96616.56
2023-10-20T09:29:31.107Z,96610.47
2023-10-20T09:32:00.773Z,96617.56
2023-10-20T09:34:28.703Z,96616.72
2023-10-20T09:36:57.762Z,96628.09
2023-10-20T09:39:38.457Z,96625.78
2023-10-20T09:42:07.135Z,96622.81
2023-10-20T09:44:47.640Z,96610.66
2023-10-20T09:47:23.152Z,96610.47
2023-10-20T09:49:52.320Z,96608.53
2023-10-20T09:52:20.314Z,96621.53
2023-10-20T09:54:51.384Z,96615.28
2023-10-20T09:57:20.795Z,96627.44
2023-10-20T09:59:54.780Z,96610.84
2023-10-20T10:02:29.127Z,96617.91
2023-10-20T10:04:58.060Z,96616.59
2023-10-20T10:07:37.234Z,96619.56
2023-10-20T10:10:06.171Z,96620.88
2023-10-20T10:12:34.798Z,96615.59
2023-10-20T10:15:13.701Z,96614.81
2023-10-20T10:17:47.990Z,96607.72
2023-10-20T10:20:28.601Z,96599.19
2023-10-20T10:23:02.644Z,96601.66
2023-10-20T10:25:42.679Z,96598.19
2023-10-20T10:28:19.511Z,96605.09
2023-10-20T10:30:49.897Z,96603.94
2023-10-20T10:33:22.337Z,96603.13
2023-10-20T10:35:49.315Z,96608.88
2023-10-20T10:38:23.386Z,96607.41
2023-10-20T10:40:52.384Z,96604.59
2023-10-20T10:43:20.706Z,96600.16
2023-10-20T10:45:54.489Z,96605.75
2023-10-20T10:48:25.617Z,96603.94
2023-10-20T10:50:52.403Z,96607.56
2023-10-20T10:53:19.059Z,96604.09
2023-10-20T10:55:46.469Z,96575.53
2023-10-20T10:58:14.234Z,96575.84
2023-10-20T11:00:45.089Z,96570.59
2023-10-20T11:03:12.741Z,96563.69
2023-10-20T11:05:40.252Z,96569.75
2023-10-20T11:08:08.754Z,96572.38
2023-10-20T11:10:38.838Z,96546.22
2023-10-20T11:13:07.714Z,96551.47
2023-10-20T11:15:34.594Z,96543.59
2023-10-20T11:18:02.764Z,96542.78
2023-10-20T11:20:33.904Z,96544.59
2023-10-20T11:23:05.276Z,96536.69
2023-10-20T11:25:31.764Z,96516.66
2023-10-20T11:27:58.773Z,96499.09
2023-10-20T11:30:25.453Z,96502.50
2023-10-20T11:32:56.260Z,96491.34
2023-10-20T11:35:25.782Z,96482.47
2023-10-20T11:37:53.547Z,96464.06
2023-10-20T11:40:21.121Z,96465.88
2023-10-20T11:42:50.850Z,96468.31
2023-10-20T11:45:18.004Z,96464.06
2023-10-20T11:47:44.852Z,96461.44
2023-10-20T11:50:12.037Z,96465.69
2023-10-20T11:52:42.540Z,96471.97
2023-10-20T11:55:10.286Z,96456.69
2023-10-20T11:57:37.711Z,96457.50
2023-10-20T12:00:11.447Z,96445.19
2023-10-20T12:02:42.004Z,96449.63
2023-10-20T12:05:09.820Z,96463.59
2023-10-20T12:07:37.387Z,96462.63
2023-10-20T12:10:06.508Z,96453.88
2023-10-20T12:12:33.460Z,96436.47
2023-10-20T12:15:01.430Z,96439.09
2023-10-20T12:17:28.454Z,96446.00
2023-10-20T12:19:55.395Z,96435.47
2023-10-20T12:22:21.893Z,96431.84
2023-10-20T12:24:48.423Z,96428.25
2023-10-20T12:27:15.097Z,96428.44
2023-10-20T12:29:41.915Z,96433.53
2023-10-20T12:32:13.638Z,96411.50
2023-10-20T12:34:40.945Z,96416.75
2023-10-20T12:37:07.496Z,96404.22
2023-10-20T12:39:34.590Z,96414.75
2023-10-20T12:42:04.323Z,96407.88
2023-10-20T12:44:31.054Z,96418.38
2023-10-20T12:46:57.692Z,96395.72
2023-10-20T12:49:24.227Z,96387.00
2023-10-20T12:51:50.683Z,96389.78
2023-10-20T12:54:17.423Z,96375.84
2023-10-20T12:56:44.028Z,96385.53
2023-10-20T12:59:10.522Z,96378.63
2023-10-20T13:01:37.048Z,96383.19
2023-10-20T13:04:03.888Z,96367.78
2023-10-20T13:06:31.853Z,96378.31
2023-10-20T13:09:00.558Z,96389.16
2023-10-20T13:11:27.173Z,96404.91
2023-10-20T13:13:53.906Z,96403.47
2023-10-20T13:16:20.379Z,96407.88
2023-10-20T13:18:46.863Z,96397.53
2023-10-20T13:21:13.308Z,96388.84
2023-10-20T13:23:39.813Z,96413.50
2023-10-20T13:26:06.291Z,96419.72
2023-10-20T13:28:33.728Z,96425.81
2023-10-20T13:31:12.373Z,96420.06
2023-10-20T13:33:40.915Z,96399.69
2023-10-20T13:36:09.159Z,96428.75
2023-10-20T13:38:39.046Z,96440.28
2023-10-20T13:41:06.561Z,96447.53
2023-10-20T13:43:33.519Z,96426.66
2023-10-20T13:46:00.533Z,96432.88
2023-10-20T13:48:27.453Z,96427.00
2023-10-20T13:50:54.405Z,96419.09
2023-10-20T13:53:21.154Z,96409.75
2023-10-20T13:55:47.836Z,96404.66
2023-10-20T13:58:16.369Z,96404.00
2023-10-20T14:00:42.981Z,96391.84
2023-10-20T14:03:09.730Z,96391.19
2023-10-20T14:05:36.688Z,96393.00
2023-10-20T14:08:03.520Z,96390.53
2023-10-20T14:10:30.322Z,96380.84
2023-10-20T14:12:57.212Z,96384.47
2023-10-20T14:15:24.490Z,96373.13
2023-10-20T14:17:51.555Z,96379.38
2023-10-20T14:20:18.998Z,96371.50
2023-10-20T14:22:45.668Z,96364.63
2023-10-20T14:25:12.508Z,96358.53
2023-10-20T14:27:40.330Z,96360.31
2023-10-20T14:30:08.119Z,96339.31
2023-10-20T14:32:35.415Z,96333.09
2023-10-20T14:35:02.260Z,96332.09
2023-10-20T14:37:28.849Z,96327.84
2023-10-20T14:39:57.395Z,96340.81
2023-10-20T14:42:24.266Z,96336.34
2023-10-20T14:44:51.534Z,96332.72
2023-10-20T14:47:18.517Z,96333.56
2023-10-20T14:49:45.059Z,96329.13
2023-10-20T14:52:13.409Z,96331.56
2023-10-20T14:54:40.572Z,96333.22
2023-10-20T14:57:07.491Z,96333.22
2023-10-20T14:59:34.238Z,96343.56
2023-10-20T15:02:00.938Z,96341.56
2023-10-20T15:04:30.795Z,96337.16
2023-10-20T15:06:58.189Z,96340.41
2023-10-20T15:09:24.905Z,96328.91
2023-10-20T15:11:52.481Z,96332.19
2023-10-20T15:14:19.238Z,96327.75
2023-10-20T15:16:45.864Z,96327.75
2023-10-20T15:19:12.538Z,96321.53
2023-10-20T15:21:39.005Z,96319.53
2023-10-20T15:24:07.365Z,96328.25
2023-10-20T15:26:33.899Z,96315.91
2023-10-20T15:29:00.458Z,96326.25
2023-10-20T15:31:27.001Z,96317.41
2023-10-20T15:33:53.756Z,96311.94
2023-10-20T15:36:22.305Z,96303.88
2023-10-20T15:38:50.445Z,96302.09
2023-10-20T15:41:19.161Z,96300.25
2023-10-20T15:43:46.190Z,96302.88
2023-10-20T15:46:13.841Z,96294.03
2023-10-20T15:48:40.749Z,96305.34
2023-10-20T15:51:09.092Z,96318.50
2023-10-20T15:53:36.032Z,96315.69
2023-10-20T15:56:02.616Z,96311.28
2023-10-20T15:58:29.215Z,96313.91
2023-10-20T16:01:00.751Z,96333.31
2023-10-20T16:03:57.342Z,96335.09
2023-10-20T16:06:23.982Z,96338.69
2023-10-20T16:08:54.146Z,96316.84
2023-10-20T16:11:20.676Z,96327.97
2023-10-20T16:13:47.112Z,96334.75
2023-10-20T16:19:07.586Z,96342.28
2023-10-20T16:21:34.196Z,96335.22
2023-10-20T16:24:00.833Z,96353.47
2023-10-20T16:26:27.522Z,96359.53
2023-10-20T16:28:54.132Z,96373.34
2023-10-20T16:31:20.695Z,96368.56
2023-10-20T16:33:47.325Z,96371.84
2023-10-20T16:36:13.853Z,96362.94
2023-10-20T16:38:40.627Z,96368.84
2023-10-20T16:41:07.200Z,96366.06
2023-10-20T16:43:33.766Z,96375.41
2023-10-20T16:46:05.249Z,96378.88
2023-10-20T16:48:32.733Z,96389.84
2023-10-20T16:50:59.605Z,96382.63
2023-10-20T16:53:26.270Z,96384.09
2023-10-20T16:55:53.171Z,96379.47
2023-10-20T16:58:20.030Z,96378.28
2023-10-20T17:00:46.587Z,96384.03
2023-10-20T17:03:13.155Z,96384.03
2023-10-20T17:05:39.832Z,96380.41
2023-10-20T17:08:06.841Z,96385.34
2023-10-20T17:10:38.362Z,96383.72
2023-10-20T17:13:04.828Z,96387.81
2023-10-20T17:15:32.261Z,96395.34
2023-10-20T17:17:59.616Z,96409.31
2023-10-20T17:20:26.290Z,96415.88
2023-10-20T17:22:52.882Z,96425.22
2023-10-20T17:25:19.519Z,96430.97
2023-10-20T17:27:46.781Z,96439.19
2023-10-20T17:30:13.667Z,96445.72
2023-10-20T17:32:40.368Z,96439.31
2023-10-20T17:35:07.336Z,96456.41
2023-10-20T17:37:33.898Z,96457.66
2023-10-20T17:40:01.771Z,96460.97
2023-10-20T17:42:28.225Z,96462.41
2023-10-20T17:44:54.797Z,96474.25
2023-10-20T17:47:21.328Z,96479.16
2023-10-20T17:49:47.829Z,96486.69
2023-10-20T17:52:14.373Z,96487.19
2023-10-20T17:54:41.049Z,96493.94
2023-10-20T17:57:08.051Z,96505.75
2023-10-20T17:59:34.848Z,96500.94
2023-10-20T18:02:01.857Z,96494.50
2023-10-20T18:04:28.529Z,96490.34
2023-10-20T18:06:55.086Z,96506.63
2023-10-20T18:10:00.665Z,96494.13
2023-10-20T18:12:27.246Z,96488.63
2023-10-20T18:14:53.729Z,96490.53
2023-10-20T18:17:20.259Z,96501.19
2023-10-20T18:19:46.770Z,96507.56
2023-10-20T18:22:13.630Z,96506.69
2023-10-20T18:24:40.087Z,96511.28
2023-10-20T18:27:06.649Z,96504.47
2023-10-20T18:29:35.893Z,96502.75
2023-10-20T18:32:03.857Z,96502.06
2023-10-20T18:34:30.395Z,96504.78
2023-10-20T18:36:58.122Z,96497.97
2023-10-20T18:39:25.241Z,96510.44
2023-10-20T18:41:53.697Z,96514.19
2023-10-20T18:44:20.310Z,96507.34
2023-10-20T18:46:46.874Z,96516.53
2023-10-20T18:49:13.490Z,96523.09
2023-10-20T18:51:42.078Z,96523.56
2023-10-20T18:54:10.981Z,96519.56
2023-10-20T18:56:38.258Z,96525.91
2023-10-20T18:59:06.198Z,96527.19
2023-10-20T19:01:32.840Z,96537.22
2023-10-20T19:03:59.469Z,96529.75
2023-10-20T19:06:26.154Z,96539.75
2023-10-20T19:08:52.804Z,96543.69
2023-10-20T19:11:21.950Z,96544.31
2023-10-20T19:13:48.511Z,96542.13
2023-10-20T19:16:15.104Z,96551.31
2023-10-20T19:18:41.769Z,96553.56
2023-10-20T19:21:11.896Z,96552.38
2023-10-20T19:23:39.201Z,96557.31
2023-10-20T19:26:15.288Z,96563.88
2023-10-20T19:28:42.349Z,96563.50
2023-10-20T19:31:09.233Z,96574.50
2023-10-20T19:33:37.443Z,96577.59
2023-10-20T19:36:07.413Z,96580.91
2023-10-20T19:38:34.288Z,96579.53
2023-10-20T19:41:00.976Z,96586.06
2023-10-20T19:43:27.864Z,96588.19
2023-10-20T19:45:54.546Z,96591.28
2023-10-20T19:48:21.126Z,96585.63
2023-10-20T19:50:47.833Z,96587.91
2023-10-20T19:53:14.588Z,96590.78
2023-10-20T19:55:42.343Z,96580.69
2023-10-20T19:58:08.836Z,96586.41
2023-10-20T20:00:35.511Z,96584.84
2023-10-20T20:03:02.323Z,96594.84
2023-10-20T20:05:29.025Z,96595.31
2023-10-20T20:07:56.810Z,96601.69
2023-10-20T20:10:23.859Z,96601.94
2023-10-20T20:12:50.702Z,96612.94
2023-10-20T20:15:17.253Z,96600.16
2023-10-20T20:17:44.080Z,96614.47
2023-10-20T20:20:10.904Z,96611.44
2023-10-20T20:22:37.738Z,96613.53
2023-10-20T20:25:04.608Z,96613.16
2023-10-20T20:27:32.480Z,96616.25
2023-10-20T20:29:59.193Z,96616.88
2023-10-20T20:32:25.841Z,96622.16
2023-10-20T20:34:52.385Z,96627.44
2023-10-20T20:37:20.280Z,96633.75
2023-10-20T20:39:47.012Z,96635.75
2023-10-20T20:42:13.612Z,96637.78
2023-10-20T20:44:40.228Z,96637.13
2023-10-20T20:47:06.986Z,96638.34
2023-10-20T20:49:35.170Z,96640.34
2023-10-20T20:52:02.048Z,96645.00
2023-10-20T20:54:28.651Z,96644.19
2023-10-20T20:56:55.225Z,96656.59
2023-10-20T20:59:21.899Z,96651.31
2023-10-20T21:01:48.466Z,96660.88
2023-10-20T21:04:15.143Z,96663.53
2023-10-20T21:06:41.802Z,96667.81
2023-10-20T21:09:10.265Z,96683.31
2023-10-20T21:11:37.564Z,96676.63
2023-10-20T21:14:04.280Z,96683.38
2023-10-20T21:16:32.095Z,96683.84
2023-10-20T21:19:01.516Z,96686.28
2023-10-20T21:21:28.209Z,96681.44
2023-10-20T21:23:54.850Z,96682.88
2023-10-20T21:26:22.732Z,96687.16
2023-10-20T21:28:49.488Z,96683.50
2023-10-20T21:31:16.098Z,96682.72
2023-10-20T21:33:43.004Z,96689.81
2023-10-20T21:36:14.747Z,96698.13
2023-10-20T21:38:41.385Z,96694.50
2023-10-20T21:41:08.051Z,96691.19
2023-10-20T21:43:34.544Z,96697.69
2023-10-20T21:46:01.234Z,96702.19
2023-10-20T21:48:27.898Z,96698.03
2023-10-20T21:50:58.719Z,96702.91
2023-10-20T21:53:26.184Z,96705.72
2023-10-20T21:56:02.067Z,96714.25
2023-10-20T21:58:29.411Z,96708.94
2023-10-20T22:00:56.517Z,96715.44
2023-10-20T22:03:23.738Z,96709.69
2023-10-20T22:05:54.175Z,96719.00
2023-10-20T22:08:21.568Z,96712.06
2023-10-20T22:10:48.503Z,96716.75
2023-10-20T22:13:15.164Z,96727.50
2023-10-20T22:15:41.891Z,96730.50
2023-10-20T22:18:09.228Z,96733.31
2023-10-20T22:20:35.952Z,96732.69
2023-10-20T22:23:02.580Z,96737.16
2023-10-20T22:25:29.343Z,96746.09
2023-10-20T22:27:56.710Z,96743.47
2023-10-20T22:30:24.025Z,96744.47
2023-10-20T22:32:50.635Z,96751.56
2023-10-20T22:35:17.213Z,96747.28
2023-10-20T22:37:43.664Z,96747.47
2023-10-20T22:40:10.807Z,96755.59
2023-10-20T22:42:37.498Z,96753.94
2023-10-20T22:45:05.469Z,96754.97
2023-10-20T22:47:33.351Z,96761.22
2023-10-20T22:50:00.204Z,96763.25
2023-10-20T22:52:26.900Z,96766.06
2023-10-20T22:54:53.466Z,96761.78
2023-10-20T22:57:20.205Z,96766.25
2023-10-20T22:59:46.702Z,96769.06
2023-10-20T23:02:13.205Z,96770.91
2023-10-20T23:04:39.736Z,96778.00
2023-10-20T23:07:06.369Z,96780.03
2023-10-20T23:09:33.163Z,96781.00
2023-10-20T23:11:59.897Z,96788.13
2023-10-20T23:14:26.623Z,96790.97
2023-10-20T23:16:53.943Z,96790.13
2023-10-20T23:19:20.449Z,96787.66
2023-10-20T23:21:46.861Z,96786.03
2023-10-20T23:24:13.384Z,96794.13
2023-10-20T23:26:39.993Z,96795.13
2023-10-20T23:29:06.486Z,96803.25
2023-10-20T23:31:33.905Z,96805.25
2023-10-20T23:34:00.341Z,96807.44
2023-10-20T23:36:26.749Z,96813.72
2023-10-20T23:38:53.208Z,96813.88
2023-10-20T23:41:19.598Z,96821.03
2023-10-20T23:43:46.072Z,96826.47
2023-10-20T23:46:12.562Z,96820.53
2023-10-20T23:48:39.070Z,96819.91
2023-10-20T23:51:05.712Z,96820.91
2023-10-20T23:53:32.181Z,96826.34
2023-10-20T23:55:58.579Z,96823.88
2023-10-20T23:58:25.055Z,96822.25
